sensor_id;sensor_type;location;lat;lon;timestamp;pressure;altitude;pressure_sealevel;temperature;humidity
23363;BME280;11853;48.080;11.960;2023-02-12T00:00:45;96594.00;;;5.91;77.56
23363;BME280;11853;48.080;11.960;2023-02-12T00:03:11;96585.16;;;5.92;77.27
23363;BME280;11853;48.080;11.960;2023-02-12T00:05:38;96586.34;;;5.86;76.96
23363;BME280;11853;48.080;11.960;2023-02-12T00:08:06;96582.19;;;5.82;77.32
23363;BME280;11853;48.080;11.960;2023-02-12T00:10:33;96589.13;;;5.83;76.95
23363;BME280;11853;48.080;11.960;2023-02-12T00:12:59;96584.03;;;5.80;77.32
23363;BME280;11853;48.080;11.960;2023-02-12T00:15:24;96577.97;;;5.78;77.97
23363;BME280;11853;48.080;11.960;2023-02-12T00:17:50;96575.44;;;5.76;77.56
23363;BME280;11853;48.080;11.960;2023-02-12T00:20:17;96578.75;;;5.80;77.82
23363;BME280;11853;48.080;11.960;2023-02-12T00:22:42;96575.22;;;5.81;77.37
23363;BME280;11853;48.080;11.960;2023-02-12T00:25:08;96582.34;;;5.79;78.19
23363;BME280;11853;48.080;11.960;2023-02-12T00:27:34;96589.06;;;5.84;77.92
23363;BME280;11853;48.080;11.960;2023-02-12T00:30:00;96581.16;;;5.84;77.38
23363;BME280;11853;48.080;11.960;2023-02-12T00:32:26;96585.44;;;5.87;77.86
23363;BME280;11853;48.080;11.960;2023-02-12T00:34:52;96585.75;;;5.81;77.61
23363;BME280;11853;48.080;11.960;2023-02-12T00:37:17;96586.50;;;5.83;78.22
23363;BME280;11853;48.080;11.960;2023-02-12T00:39:43;96577.84;;;5.81;78.25
23363;BME280;11853;48.080;11.960;2023-02-12T00:42:08;96581.41;;;5.80;77.96
23363;BME280;11853;48.080;11.960;2023-02-12T00:44:34;96576.28;;;5.77;79.10
23363;BME280;11853;48.080;11.960;2023-02-12T00:47:00;96579.94;;;5.74;79.11
23363;BME280;11853;48.080;11.960;2023-02-12T00:49:29;96582.50;;;5.76;78.95
23363;BME280;11853;48.080;11.960;2023-02-12T00:51:59;96580.03;;;5.73;79.51
23363;BME280;11853;48.080;11.960;2023-02-12T00:54:25;96585.97;;;5.76;79.26
23363;BME280;11853;48.080;11.960;2023-02-12T00:56:52;96591.94;;;5.80;78.81
23363;BME280;11853;48.080;11.960;2023-02-12T00:59:17;96603.72;;;5.73;79.64
23363;BME280;11853;48.080;11.960;2023-02-12T01:01:43;96605.25;;;5.77;79.58
23363;BME280;11853;48.080;11.960;2023-02-12T01:04:09;96608.75;;;5.77;79.40
23363;BME280;11853;48.080;11.960;2023-02-12T01:06:36;96605.09;;;5.80;79.30
23363;BME280;11853;48.080;11.960;2023-02-12T01:09:01;96606.94;;;5.78;79.36
23363;BME280;11853;48.080;11.960;2023-02-12T01:11:27;96608.06;;;5.74;80.43
23363;BME280;11853;48.080;11.960;2023-02-12T01:13:52;96613.38;;;5.72;80.37
23363;BME280;11853;48.080;11.960;2023-02-12T01:16:20;96608.06;;;5.74;80.49
23363;BME280;11853;48.080;11.960;2023-02-12T01:18:49;96601.94;;;5.73;80.48
23363;BME280;11853;48.080;11.960;2023-02-12T01:21:21;96605.25;;;5.77;79.68
23363;BME280;11853;48.080;11.960;2023-02-12T01:23:48;96599.22;;;5.75;79.84
23363;BME280;11853;48.080;11.960;2023-02-12T01:26:14;96597.34;;;5.77;79.90
23363;BME280;11853;48.080;11.960;2023-02-12T01:28:41;96597.19;;;5.80;79.14
23363;BME280;11853;48.080;11.960;2023-02-12T01:31:16;96600.00;;;5.77;79.71
23363;BME280;11853;48.080;11.960;2023-02-12T01:33:42;96610.69;;;5.74;79.63
23363;BME280;11853;48.080;11.960;2023-02-12T01:36:09;96607.81;;;5.78;79.18
23363;BME280;11853;48.080;11.960;2023-02-12T01:38:35;96604.31;;;5.78;78.85
23363;BME280;11853;48.080;11.960;2023-02-12T01:41:12;96592.41;;;5.71;79.30
23363;BME280;11853;48.080;11.960;2023-02-12T01:43:38;96588.84;;;5.72;79.40
23363;BME280;11853;48.080;11.960;2023-02-12T01:46:05;96585.47;;;5.70;79.78
23363;BME280;11853;48.080;11.960;2023-02-12T01:48:34;96586.38;;;5.69;79.86
23363;BME280;11853;48.080;11.960;2023-02-12T01:51:01;96583.13;;;5.63;80.70
23363;BME280;11853;48.080;11.960;2023-02-12T01:53:33;96586.53;;;5.65;79.22
23363;BME280;11853;48.080;11.960;2023-02-12T01:56:01;96585.91;;;5.60;80.11
23363;BME280;11853;48.080;11.960;2023-02-12T01:58:33;96572.31;;;5.52;81.50
23363;BME280;11853;48.080;11.960;2023-02-12T02:01:02;96574.69;;;5.57;81.80
23363;BME280;11853;48.080;11.960;2023-02-12T02:03:29;96573.00;;;5.56;83.22
23363;BME280;11853;48.080;11.960;2023-02-12T02:05:59;96577.59;;;5.52;83.79
23363;BME280;11853;48.080;11.960;2023-02-12T02:08:27;96584.38;;;5.56;83.86
23363;BME280;11853;48.080;11.960;2023-02-12T02:10:53;96587.63;;;5.61;83.81
23363;BME280;11853;48.080;11.960;2023-02-12T02:13:19;96597.53;;;5.56;84.29
23363;BME280;11853;48.080;11.960;2023-02-12T02:16:23;96602.59;;;5.61;83.53
23363;BME280;11853;48.080;11.960;2023-02-12T02:19:01;96597.75;;;5.52;85.97
23363;BME280;11853;48.080;11.960;2023-02-12T02:21:39;96596.00;;;5.52;86.76
23363;BME280;11853;48.080;11.960;2023-02-12T02:27:19;96604.59;;;5.56;89.08
23363;BME280;11853;48.080;11.960;2023-02-12T02:32:33;96585.00;;;5.61;90.13
23363;BME280;11853;48.080;11.960;2023-02-12T02:35:10;96589.47;;;5.59;91.13
23363;BME280;11853;48.080;11.960;2023-02-12T02:37:51;96585.16;;;5.58;92.29
23363;BME280;11853;48.080;11.960;2023-02-12T02:40:23;96577.59;;;5.52;95.06
23363;BME280;11853;48.080;11.960;2023-02-12T02:42:56;96576.81;;;5.50;97.28
23363;BME280;11853;48.080;11.960;2023-02-12T02:45:40;96565.66;;;5.45;98.15
23363;BME280;11853;48.080;11.960;2023-02-12T02:48:20;96564.88;;;5.43;98.74
23363;BME280;11853;48.080;11.960;2023-02-12T02:50:53;96556.81;;;5.46;97.60
23363;BME280;11853;48.080;11.960;2023-02-12T02:56:23;96567.06;;;5.52;94.91
23363;BME280;11853;48.080;11.960;2023-02-12T02:59:01;96567.19;;;5.49;93.70
23363;BME280;11853;48.080;11.960;2023-02-12T03:01:32;96570.59;;;5.51;93.31
23363;BME280;11853;48.080;11.960;2023-02-12T03:04:06;96577.59;;;5.52;92.39
23363;BME280;11853;48.080;11.960;2023-02-12T03:06:43;96587.56;;;5.46;93.04
23363;BME280;11853;48.080;11.960;2023-02-12T03:09:35;96591.03;;;5.46;91.82
23363;BME280;11853;48.080;11.960;2023-02-12T03:12:06;96594.38;;;5.50;91.45
23363;BME280;11853;48.080;11.960;2023-02-12T03:14:38;96596.00;;;5.52;91.78
23363;BME280;11853;48.080;11.960;2023-02-12T03:17:15;96595.28;;;5.49;91.45
23363;BME280;11853;48.080;11.960;2023-02-12T03:19:53;96592.91;;;5.44;91.40
23363;BME280;11853;48.080;11.960;2023-02-12T03:22:33;96597.06;;;5.48;91.14
23363;BME280;11853;48.080;11.960;2023-02-12T03:25:14;96604.75;;;5.53;91.04
23363;BME280;11853;48.080;11.960;2023-02-12T03:27:50;96598.72;;;5.51;90.74
23363;BME280;11853;48.080;11.960;2023-02-12T03:30:19;96601.19;;;5.54;91.12
23363;BME280;11853;48.080;11.960;2023-02-12T03:33:09;96608.06;;;5.56;90.92
23363;BME280;11853;48.080;11.960;2023-02-12T03:38:50;96596.59;;;5.57;90.71
23363;BME280;11853;48.080;11.960;2023-02-12T03:41:30;96596.75;;;5.54;91.17
23363;BME280;11853;48.080;11.960;2023-02-12T03:46:59;96608.91;;;5.57;90.80
23363;BME280;11853;48.080;11.960;2023-02-12T03:49:45;96602.81;;;5.56;91.13
23363;BME280;11853;48.080;11.960;2023-02-12T03:52:15;96597.59;;;5.55;90.77
23363;BME280;11853;48.080;11.960;2023-02-12T03:54:41;96597.06;;;5.48;91.00
23363;BME280;11853;48.080;11.960;2023-02-12T03:57:14;96599.56;;;5.51;91.08
23363;BME280;11853;48.080;11.960;2023-02-12T03:59:44;96601.28;;;5.52;91.00
23363;BME280;11853;48.080;11.960;2023-02-12T04:02:10;96612.56;;;5.54;89.87
23363;BME280;11853;48.080;11.960;2023-02-12T04:04:37;96620.69;;;5.50;90.76
23363;BME280;11853;48.080;11.960;2023-02-12T04:07:02;96627.50;;;5.54;89.27
23363;BME280;11853;48.080;11.960;2023-02-12T04:09:30;96624.97;;;5.52;89.29
23363;BME280;11853;48.080;11.960;2023-02-12T04:15:10;96616.28;;;5.50;88.17
23363;BME280;11853;48.080;11.960;2023-02-12T04:17:51;96621.56;;;5.50;87.10
23363;BME280;11853;48.080;11.960;2023-02-12T04:21:15;96618.81;;;5.52;86.85
23363;BME280;11853;48.080;11.960;2023-02-12T04:29:08;96623.88;;;5.39;85.81
23363;BME280;11853;48.080;11.960;2023-02-12T04:34:20;96634.69;;;5.33;85.92
23363;BME280;11853;48.080;11.960;2023-02-12T04:36:55;96634.41;;;5.39;84.66
23363;BME280;11853;48.080;11.960;2023-02-12T04:39:26;96633.44;;;5.40;84.71
23363;BME280;11853;48.080;11.960;2023-02-12T04:41:52;96637.81;;;5.41;84.92
23363;BME280;11853;48.080;11.960;2023-02-12T04:44:23;96649.09;;;5.43;84.00
23363;BME280;11853;48.080;11.960;2023-02-12T04:46:49;96643.66;;;5.46;83.55
23363;BME280;11853;48.080;11.960;2023-02-12T04:49:18;96644.53;;;5.47;84.15
23363;BME280;11853;48.080;11.960;2023-02-12T04:51:44;96642.03;;;5.43;84.19
23363;BME280;11853;48.080;11.960;2023-02-12T04:54:44;96644.59;;;5.45;83.61
23363;BME280;11853;48.080;11.960;2023-02-12T04:57:10;96641.19;;;5.43;83.77
23363;BME280;11853;48.080;11.960;2023-02-12T04:59:36;96646.47;;;5.43;83.91
23363;BME280;11853;48.080;11.960;2023-02-12T05:02:01;96658.88;;;5.41;84.07
23363;BME280;11853;48.080;11.960;2023-02-12T05:04:27;96641.34;;;5.40;84.24
23363;BME280;11853;48.080;11.960;2023-02-12T05:06:52;96639.56;;;5.40;84.40
23363;BME280;11853;48.080;11.960;2023-02-12T05:09:19;96646.91;;;5.34;84.27
23363;BME280;11853;48.080;11.960;2023-02-12T05:11:45;96655.59;;;5.36;85.05
23363;BME280;11853;48.080;11.960;2023-02-12T05:14:14;96653.88;;;5.35;84.22
23363;BME280;11853;48.080;11.960;2023-02-12T05:16:40;96658.28;;;5.34;84.48
23363;BME280;11853;48.080;11.960;2023-02-12T05:19:06;96654.59;;;5.38;84.01
23363;BME280;11853;48.080;11.960;2023-02-12T05:21:34;96653.59;;;5.41;84.53
23363;BME280;11853;48.080;11.960;2023-02-12T05:24:01;96663.09;;;5.43;84.43
23363;BME280;11853;48.080;11.960;2023-02-12T05:26:27;96661.41;;;5.42;84.12
23363;BME280;11853;48.080;11.960;2023-02-12T05:28:53;96665.66;;;5.45;83.90
23363;BME280;11853;48.080;11.960;2023-02-12T05:31:19;96664.81;;;5.45;84.33
23363;BME280;11853;48.080;11.960;2023-02-12T05:33:46;96670.94;;;5.45;83.92
23363;BME280;11853;48.080;11.960;2023-02-12T05:36:15;96654.66;;;5.37;84.08
23363;BME280;11853;48.080;11.960;2023-02-12T05:38:42;96660.88;;;5.36;84.07
23363;BME280;11853;48.080;11.960;2023-02-12T05:41:14;96659.00;;;5.38;83.79
23363;BME280;11853;48.080;11.960;2023-02-12T05:43:40;96658.88;;;5.41;83.39
23363;BME280;11853;48.080;11.960;2023-02-12T05:46:07;96663.09;;;5.43;82.52
23363;BME280;11853;48.080;11.960;2023-02-12T05:48:34;96662.09;;;5.46;82.78
23363;BME280;11853;48.080;11.960;2023-02-12T05:51:11;96657.75;;;5.45;81.58
23363;BME280;11853;48.080;11.960;2023-02-12T05:53:38;96673.50;;;5.47;81.18
23363;BME280;11853;48.080;11.960;2023-02-12T05:58:32;96663.03;;;5.45;81.15
23363;BME280;11853;48.080;11.960;2023-02-12T06:00:57;96669.22;;;5.44;81.45
23363;BME280;11853;48.080;11.960;2023-02-12T06:03:23;96664.28;;;5.38;81.51
23363;BME280;11853;48.080;11.960;2023-02-12T06:05:52;96666.13;;;5.36;82.54
23363;BME280;11853;48.080;11.960;2023-02-12T06:08:18;96671.88;;;5.44;81.34
23363;BME280;11853;48.080;11.960;2023-02-12T06:10:45;96683.44;;;5.40;82.42
23363;BME280;11853;48.080;11.960;2023-02-12T06:13:11;96680.19;;;5.35;83.34
23363;BME280;11853;48.080;11.960;2023-02-12T06:15:36;96675.00;;;5.33;84.81
23363;BME280;11853;48.080;11.960;2023-02-12T06:18:02;96673.38;;;5.31;86.23
23363;BME280;11853;48.080;11.960;2023-02-12T06:20:28;96671.69;;;5.30;87.73
23363;BME280;11853;48.080;11.960;2023-02-12T06:22:54;96674.94;;;5.35;87.33
23363;BME280;11853;48.080;11.960;2023-02-12T06:25:19;96681.22;;;5.32;88.65
23363;BME280;11853;48.080;11.960;2023-02-12T06:27:45;96685.59;;;5.32;88.62
23363;BME280;11853;48.080;11.960;2023-02-12T06:30:11;96683.91;;;5.31;89.65
23363;BME280;11853;48.080;11.960;2023-02-12T06:32:37;96681.97;;;5.34;89.66
23363;BME280;11853;48.080;11.960;2023-02-12T06:35:03;96678.59;;;5.32;90.47
23363;BME280;11853;48.080;11.960;2023-02-12T06:37:28;96691.59;;;5.35;90.47
23363;BME280;11853;48.080;11.960;2023-02-12T06:39:54;96689.72;;;5.37;90.94
23363;BME280;11853;48.080;11.960;2023-02-12T06:42:19;96684.69;;;5.33;91.05
23363;BME280;11853;48.080;11.960;2023-02-12T06:44:45;96686.38;;;5.34;91.18
23363;BME280;11853;48.080;11.960;2023-02-12T06:47:11;96687.09;;;5.37;91.35
23363;BME280;11853;48.080;11.960;2023-02-12T06:49:37;96692.59;;;5.33;91.89
23363;BME280;11853;48.080;11.960;2023-02-12T06:52:02;96691.81;;;5.31;92.73
23363;BME280;11853;48.080;11.960;2023-02-12T06:54:28;96697.84;;;5.33;93.33
23363;BME280;11853;48.080;11.960;2023-02-12T06:56:53;96692.59;;;5.33;92.61
23363;BME280;11853;48.080;11.960;2023-02-12T06:59:21;96693.44;;;5.33;93.37
23363;BME280;11853;48.080;11.960;2023-02-12T07:01:46;96701.88;;;5.40;93.02
23363;BME280;11853;48.080;11.960;2023-02-12T07:04:12;96695.22;;;5.33;93.73
23363;BME280;11853;48.080;11.960;2023-02-12T07:06:38;96696.22;;;5.30;94.87
23363;BME280;11853;48.080;11.960;2023-02-12T07:09:04;96703.03;;;5.34;95.34
23363;BME280;11853;48.080;11.960;2023-02-12T07:11:32;96705.91;;;5.30;97.16
23363;BME280;11853;48.080;11.960;2023-02-12T07:13:58;96701.88;;;5.40;96.42
23363;BME280;11853;48.080;11.960;2023-02-12T07:16:24;96719.94;;;5.48;97.24
23363;BME280;11853;48.080;11.960;2023-02-12T07:18:51;96718.16;;;5.48;97.62
23363;BME280;11853;48.080;11.960;2023-02-12T07:21:17;96703.78;;;5.55;98.31
23363;BME280;11853;48.080;11.960;2023-02-12T07:23:48;96705.31;;;5.59;98.88
23363;BME280;11853;48.080;11.960;2023-02-12T07:26:15;96703.31;;;5.64;99.29
23363;BME280;11853;48.080;11.960;2023-02-12T07:28:42;96712.59;;;5.72;99.66
23363;BME280;11853;48.080;11.960;2023-02-12T07:31:09;96706.94;;;5.79;99.40
23363;BME280;11853;48.080;11.960;2023-02-12T07:33:36;96703.94;;;5.87;98.09
23363;BME280;11853;48.080;11.960;2023-02-12T07:36:03;96710.75;;;5.91;98.10
23363;BME280;11853;48.080;11.960;2023-02-12T07:38:29;96701.91;;;5.92;97.79
23363;BME280;11853;48.080;11.960;2023-02-12T07:41:04;96698.22;;;5.96;97.59
23363;BME280;11853;48.080;11.960;2023-02-12T07:43:29;96701.50;;;6.01;97.40
23363;BME280;11853;48.080;11.960;2023-02-12T07:45:55;96702.50;;;5.99;98.03
23363;BME280;11853;48.080;11.960;2023-02-12T07:48:20;96701.50;;;6.01;98.37
23363;BME280;11853;48.080;11.960;2023-02-12T07:50:46;96698.75;;;6.03;98.63
23363;BME280;11853;48.080;11.960;2023-02-12T07:53:11;96703.19;;;6.02;97.62
23363;BME280;11853;48.080;11.960;2023-02-12T07:55:38;96700.53;;;6.02;99.00
23363;BME280;11853;48.080;11.960;2023-02-12T07:58:03;96697.06;;;6.02;98.80
23363;BME280;11853;48.080;11.960;2023-02-12T08:00:29;96702.50;;;5.99;100.00
23363;BME280;11853;48.080;11.960;2023-02-12T08:02:54;96694.34;;;6.03;99.85
23363;BME280;11853;48.080;11.960;2023-02-12T08:05:20;96704.66;;;6.08;100.00
23363;BME280;11853;48.080;11.960;2023-02-12T08:07:46;96700.84;;;6.14;99.50
23363;BME280;11853;48.080;11.960;2023-02-12T08:10:11;96696.88;;;6.22;99.45
23363;BME280;11853;48.080;11.960;2023-02-12T08:12:37;96695.94;;;6.23;99.47
23363;BME280;11853;48.080;11.960;2023-02-12T08:15:03;96694.75;;;6.29;99.16
23363;BME280;11853;48.080;11.960;2023-02-12T08:17:29;96704.31;;;6.31;98.81
23363;BME280;11853;48.080;11.960;2023-02-12T08:19:55;96701.59;;;6.33;98.95
23363;BME280;11853;48.080;11.960;2023-02-12T08:22:20;96695.53;;;6.31;98.61
23363;BME280;11853;48.080;11.960;2023-02-12T08:24:46;96693.75;;;6.31;98.88
23363;BME280;11853;48.080;11.960;2023-02-12T08:27:11;96692.91;;;6.31;99.29
23363;BME280;11853;48.080;11.960;2023-02-12T08:29:37;96693.59;;;6.35;99.07
23363;BME280;11853;48.080;11.960;2023-02-12T08:32:03;96688.16;;;6.38;99.33
23363;BME280;11853;48.080;11.960;2023-02-12T08:34:33;96690.88;;;6.36;98.04
23363;BME280;11853;48.080;11.960;2023-02-12T08:36:59;96684.84;;;6.34;92.06
23363;BME280;11853;48.080;11.960;2023-02-12T08:39:27;96682.44;;;6.29;92.10
23363;BME280;11853;48.080;11.960;2023-02-12T08:41:54;96684.06;;;6.32;89.86
23363;BME280;11853;48.080;11.960;2023-02-12T08:44:19;96685.22;;;6.26;92.23
23363;BME280;11853;48.080;11.960;2023-02-12T08:46:47;96684.22;;;6.29;93.21
23363;BME280;11853;48.080;11.960;2023-02-12T08:49:26;96687.16;;;6.40;92.89
23363;BME280;11853;48.080;11.960;2023-02-12T08:51:55;96679.78;;;6.47;92.90
23363;BME280;11853;48.080;11.960;2023-02-12T08:54:24;96678.44;;;6.56;92.83
23363;BME280;11853;48.080;11.960;2023-02-12T08:56:53;96688.56;;;6.63;92.69
23363;BME280;11853;48.080;11.960;2023-02-12T08:59:19;96690.84;;;6.69;92.42
23363;BME280;11853;48.080;11.960;2023-02-12T09:01:49;96687.19;;;6.72;92.42
23363;BME280;11853;48.080;11.960;2023-02-12T09:04:21;96697.75;;;6.72;92.36
23363;BME280;11853;48.080;11.960;2023-02-12T09:06:48;96695.72;;;6.77;93.24
23363;BME280;11853;48.080;11.960;2023-02-12T09:09:14;96699.03;;;6.81;92.98
23363;BME280;11853;48.080;11.960;2023-02-12T09:11:40;96700.50;;;6.86;93.62
23363;BME280;11853;48.080;11.960;2023-02-12T09:14:10;96704.75;;;6.89;93.71
23363;BME280;11853;48.080;11.960;2023-02-12T09:16:37;96701.09;;;6.91;93.86
23363;BME280;11853;48.080;11.960;2023-02-12T09:19:04;96695.41;;;6.99;92.66
23363;BME280;11853;48.080;11.960;2023-02-12T09:21:30;96702.88;;;7.07;92.71
23363;BME280;11853;48.080;11.960;2023-02-12T09:23:56;96705.38;;;7.10;91.81
23363;BME280;11853;48.080;11.960;2023-02-12T09:26:24;96698.47;;;7.07;91.31
23363;BME280;11853;48.080;11.960;2023-02-12T09:28:53;96694.97;;;7.07;91.52
23363;BME280;11853;48.080;11.960;2023-02-12T09:31:27;96706.13;;;7.12;91.67
23363;BME280;11853;48.080;11.960;2023-02-12T09:33:56;96708.00;;;7.26;92.59
23363;BME280;11853;48.080;11.960;2023-02-12T09:36:29;96692.88;;;7.43;92.51
23363;BME280;11853;48.080;11.960;2023-02-12T09:38:58;96696.97;;;7.65;92.28
23363;BME280;11853;48.080;11.960;2023-02-12T09:44:03;96704.97;;;7.94;91.74
23363;BME280;11853;48.080;11.960;2023-02-12T09:49:50;96710.66;;;8.02;88.67
23363;BME280;11853;48.080;11.960;2023-02-12T09:52:25;96702.38;;;8.08;88.53
23363;BME280;11853;48.080;11.960;2023-02-12T09:54:51;96701.72;;;8.19;87.30
23363;BME280;11853;48.080;11.960;2023-02-12T09:57:32;96712.50;;;8.30;84.50
23363;BME280;11853;48.080;11.960;2023-02-12T10:00:07;96714.38;;;8.28;85.72
23363;BME280;11853;48.080;11.960;2023-02-12T10:02:38;96709.75;;;8.31;86.15
23363;BME280;11853;48.080;11.960;2023-02-12T10:05:05;96718.28;;;8.37;86.62
23363;BME280;11853;48.080;11.960;2023-02-12T10:15:34;96715.94;;;8.61;83.45
23363;BME280;11853;48.080;11.960;2023-02-12T10:26:27;96722.47;;;8.84;82.68
23363;BME280;11853;48.080;11.960;2023-02-12T10:28:57;96721.91;;;8.93;82.00
23363;BME280;11853;48.080;11.960;2023-02-12T10:31:36;96717.06;;;8.99;81.91
23363;BME280;11853;48.080;11.960;2023-02-12T10:34:17;96706.38;;;9.01;81.07
23363;BME280;11853;48.080;11.960;2023-02-12T10:36:47;96720.31;;;8.90;86.69
23363;BME280;11853;48.080;11.960;2023-02-12T10:39:28;96720.19;;;8.92;82.79
23363;BME280;11853;48.080;11.960;2023-02-12T10:44:21;96717.53;;;9.06;85.85
23363;BME280;11853;48.080;11.960;2023-02-12T10:46:46;96717.19;;;8.84;81.72
23363;BME280;11853;48.080;11.960;2023-02-12T10:49:14;96716.75;;;8.32;81.75
23363;BME280;11853;48.080;11.960;2023-02-12T10:54:33;96713.03;;;8.65;85.99
23363;BME280;11853;48.080;11.960;2023-02-12T10:57:07;96709.81;;;8.89;82.97
23363;BME280;11853;48.080;11.960;2023-02-12T10:59:34;96704.13;;;8.95;82.67
23363;BME280;11853;48.080;11.960;2023-02-12T11:02:00;96702.13;;;8.98;80.48
23363;BME280;11853;48.080;11.960;2023-02-12T11:04:29;96703.84;;;8.99;81.30
23363;BME280;11853;48.080;11.960;2023-02-12T11:07:04;96698.81;;;8.95;81.37
23363;BME280;11853;48.080;11.960;2023-02-12T11:09:35;96705.06;;;9.08;82.00
23363;BME280;11853;48.080;11.960;2023-02-12T11:12:01;96712.81;;;8.97;83.67
23363;BME280;11853;48.080;11.960;2023-02-12T11:14:28;96708.31;;;8.85;81.41
23363;BME280;11853;48.080;11.960;2023-02-12T11:16:56;96696.97;;;8.83;79.86
23363;BME280;11853;48.080;11.960;2023-02-12T11:19:24;96698.47;;;8.72;82.39
23363;BME280;11853;48.080;11.960;2023-02-12T11:21:52;96710.09;;;8.70;82.10
23363;BME280;11853;48.080;11.960;2023-02-12T11:24:34;96700.91;;;8.75;81.70
23363;BME280;11853;48.080;11.960;2023-02-12T11:29:44;96694.19;;;8.98;81.39
23363;BME280;11853;48.080;11.960;2023-02-12T11:32:18;96688.97;;;9.11;80.62
23363;BME280;11853;48.080;11.960;2023-02-12T11:35:09;96682.53;;;9.15;78.73
23363;BME280;11853;48.080;11.960;2023-02-12T11:37:39;96695.47;;;9.20;78.49
23363;BME280;11853;48.080;11.960;2023-02-12T11:40:11;96694.06;;;9.14;78.05
23363;BME280;11853;48.080;11.960;2023-02-12T11:42:39;96695.78;;;9.01;77.85
23363;BME280;11853;48.080;11.960;2023-02-12T11:45:16;96691.28;;;8.89;79.37
23363;BME280;11853;48.080;11.960;2023-02-12T11:47:44;96675.69;;;8.84;80.22
23363;BME280;11853;48.080;11.960;2023-02-12T11:50:31;96684.00;;;8.92;79.53
23363;BME280;11853;48.080;11.960;2023-02-12T11:53:07;96683.16;;;8.92;79.68
23363;BME280;11853;48.080;11.960;2023-02-12T11:55:40;96667.91;;;8.95;80.00
23363;BME280;11853;48.080;11.960;2023-02-12T12:00:41;96659.94;;;9.10;79.26
23363;BME280;11853;48.080;11.960;2023-02-12T12:03:18;96666.31;;;9.07;78.14
23363;BME280;11853;48.080;11.960;2023-02-12T12:05:49;96665.56;;;8.91;78.51
23363;BME280;11853;48.080;11.960;2023-02-12T12:11:03;96658.44;;;9.60;77.62
23363;BME280;11853;48.080;11.960;2023-02-12T12:13:46;96657.34;;;9.89;74.33
23363;BME280;11853;48.080;11.960;2023-02-12T12:16:46;96653.03;;;10.14;73.01
23363;BME280;11853;48.080;11.960;2023-02-12T12:19:53;96646.50;;;10.45;73.47
23363;BME280;11853;48.080;11.960;2023-02-12T12:22:29;96646.25;;;10.61;71.10
23363;BME280;11853;48.080;11.960;2023-02-12T12:27:38;96644.13;;;10.79;69.66
23363;BME280;11853;48.080;11.960;2023-02-12T12:30:50;96640.56;;;10.91;70.25
23363;BME280;11853;48.080;11.960;2023-02-12T12:33:40;96639.38;;;11.08;67.63
23363;BME280;11853;48.080;11.960;2023-02-12T12:42:48;96638.94;;;11.01;70.87
23363;BME280;11853;48.080;11.960;2023-02-12T12:48:19;96628.91;;;11.18;68.28
23363;BME280;11853;48.080;11.960;2023-02-12T12:56:17;96636.69;;;10.71;69.74
23363;BME280;11853;48.080;11.960;2023-02-12T12:59:15;96627.59;;;10.37;70.21
23363;BME280;11853;48.080;11.960;2023-02-12T13:04:58;96634.47;;;10.14;71.78
23363;BME280;11853;48.080;11.960;2023-02-12T13:07:41;96632.34;;;9.93;73.79
23363;BME280;11853;48.080;11.960;2023-02-12T13:13:17;96631.66;;;9.77;74.49
23363;BME280;11853;48.080;11.960;2023-02-12T13:16:22;96641.56;;;9.88;74.16
23363;BME280;11853;48.080;11.960;2023-02-12T13:21:46;96626.47;;;9.76;73.25
23363;BME280;11853;48.080;11.960;2023-02-12T13:29:28;96631.25;;;9.70;74.25
23363;BME280;11853;48.080;11.960;2023-02-12T13:34:31;96631.00;;;9.61;76.27
23363;BME280;11853;48.080;11.960;2023-02-12T13:37:00;96624.78;;;9.75;73.99
23363;BME280;11853;48.080;11.960;2023-02-12T13:39:39;96627.94;;;9.67;74.32
23363;BME280;11853;48.080;11.960;2023-02-12T13:42:38;96625.91;;;9.58;74.78
23363;BME280;11853;48.080;11.960;2023-02-12T13:56:09;96627.97;;;9.40;73.88
23363;BME280;11853;48.080;11.960;2023-02-12T14:01:08;96627.22;;;9.38;73.23
23363;BME280;11853;48.080;11.960;2023-02-12T14:03:36;96619.72;;;9.17;75.37
23363;BME280;11853;48.080;11.960;2023-02-12T14:06:18;96611.72;;;9.19;76.45
23363;BME280;11853;48.080;11.960;2023-02-12T14:08:53;96605.38;;;9.21;75.63
23363;BME280;11853;48.080;11.960;2023-02-12T14:11:32;96607.25;;;9.19;75.81
23363;BME280;11853;48.080;11.960;2023-02-12T14:14:02;96610.66;;;9.21;75.55
23363;BME280;11853;48.080;11.960;2023-02-12T14:22:13;96607.25;;;9.19;74.78
23363;BME280;11853;48.080;11.960;2023-02-12T14:25:00;96604.44;;;9.08;76.62
23363;BME280;11853;48.080;11.960;2023-02-12T14:37:59;96616.28;;;9.30;75.29
23363;BME280;11853;48.080;11.960;2023-02-12T14:43:02;96605.38;;;9.21;75.12
23363;BME280;11853;48.080;11.960;2023-02-12T14:45:34;96607.34;;;9.18;75.96
23363;BME280;11853;48.080;11.960;2023-02-12T14:48:03;96604.34;;;9.10;75.77
23363;BME280;11853;48.080;11.960;2023-02-12T14:50:43;96602.88;;;9.18;75.92
23363;BME280;11853;48.080;11.960;2023-02-12T14:53:29;96606.53;;;9.03;78.03
23363;BME280;11853;48.080;11.960;2023-02-12T14:56:01;96603.66;;;8.93;79.32
23363;BME280;11853;48.080;11.960;2023-02-12T14:58:28;96608.22;;;9.04;80.54
23363;BME280;11853;48.080;11.960;2023-02-12T15:00:58;96605.25;;;8.96;81.02
23363;BME280;11853;48.080;11.960;2023-02-12T15:06:20;96619.06;;;8.87;81.69
23363;BME280;11853;48.080;11.960;2023-02-12T15:09:06;96616.81;;;8.80;81.14
23363;BME280;11853;48.080;11.960;2023-02-12T15:11:48;96626.34;;;8.83;81.13
23363;BME280;11853;48.080;11.960;2023-02-12T15:17:14;96628.97;;;8.56;82.72
23363;BME280;11853;48.080;11.960;2023-02-12T15:19:51;96625.28;;;8.44;83.31
23363;BME280;11853;48.080;11.960;2023-02-12T15:22:34;96619.47;;;8.23;84.28
23363;BME280;11853;48.080;11.960;2023-02-12T15:25:29;96616.25;;;8.32;84.00
23363;BME280;11853;48.080;11.960;2023-02-12T15:28:30;96620.63;;;8.19;82.69
23363;BME280;11853;48.080;11.960;2023-02-12T15:30:59;96618.25;;;8.15;83.75
23363;BME280;11853;48.080;11.960;2023-02-12T15:33:33;96618.25;;;8.15;82.73
23363;BME280;11853;48.080;11.960;2023-02-12T15:36:03;96617.13;;;8.04;84.62